地図

経路データ

SID SEASON NUMBER BASIN SUBBASIN NAME ISO_TIME NATURE LAT LON WMO_WIND WMO_PRES WMO_AGENCY TRACK_TYPE DIST2LAND LANDFALL IFLAG USA_AGENCY USA_ATCF_ID USA_LAT USA_LON USA_RECORD USA_STATUS USA_WIND USA_PRES USA_SSHS USA_R34_NE USA_R34_SE USA_R34_SW USA_R34_NW USA_R50_NE USA_R50_SE USA_R50_SW USA_R50_NW USA_R64_NE USA_R64_SE USA_R64_SW USA_R64_NW USA_POCI USA_ROCI USA_RMW USA_EYE TOKYO_LAT TOKYO_LON TOKYO_GRADE TOKYO_WIND TOKYO_PRES TOKYO_R50_DIR TOKYO_R50_LONG TOKYO_R50_SHORT TOKYO_R30_DIR TOKYO_R30_LONG TOKYO_R30_SHORT TOKYO_LAND CMA_LAT CMA_LON CMA_CAT CMA_WIND CMA_PRES HKO_LAT HKO_LON HKO_CAT HKO_WIND HKO_PRES NEWDELHI_LAT NEWDELHI_LON NEWDELHI_GRADE NEWDELHI_WIND NEWDELHI_PRES NEWDELHI_CI NEWDELHI_DP NEWDELHI_POCI REUNION_LAT REUNION_LON REUNION_TYPE REUNION_WIND REUNION_PRES REUNION_TNUM REUNION_CI REUNION_RMW REUNION_R34_NE REUNION_R34_SE REUNION_R34_SW REUNION_R34_NW REUNION_R50_NE REUNION_R50_SE REUNION_R50_SW REUNION_R50_NW REUNION_R64_NE REUNION_R64_SE REUNION_R64_SW REUNION_R64_NW BOM_LAT BOM_LON BOM_TYPE BOM_WIND BOM_PRES BOM_TNUM BOM_CI BOM_RMW BOM_R34_NE BOM_R34_SE BOM_R34_SW BOM_R34_NW BOM_R50_NE BOM_R50_SE BOM_R50_SW BOM_R50_NW BOM_R64_NE BOM_R64_SE BOM_R64_SW BOM_R64_NW BOM_ROCI BOM_POCI BOM_EYE BOM_POS_METHOD BOM_PRES_METHOD NADI_LAT NADI_LON NADI_CAT NADI_WIND NADI_PRES WELLINGTON_LAT WELLINGTON_LON WELLINGTON_WIND WELLINGTON_PRES DS824_LAT DS824_LON DS824_STAGE DS824_WIND DS824_PRES TD9636_LAT TD9636_LON TD9636_STAGE TD9636_WIND TD9636_PRES TD9635_LAT TD9635_LON TD9635_WIND TD9635_PRES TD9635_ROCI NEUMANN_LAT NEUMANN_LON NEUMANN_CLASS NEUMANN_WIND NEUMANN_PRES MLC_LAT MLC_LON MLC_CLASS MLC_WIND MLC_PRES USA_GUST BOM_GUST BOM_GUST_PER REUNION_GUST REUNION_GUST_PER USA_SEAHGT USA_SEARAD_NE USA_SEARAD_SE USA_SEARAD_SW USA_SEARAD_NW STORM_SPEED STORM_DIR
1979066S13068 1979 15 SI MM GELIE 1979-03-07 06:00:00 TS -13.5000 68.3000 main 1348 1338 O________OO___ jtwc_sh SH181979 -13.5000 68.3000 -1 -13.5000 68.3000 TC 25 -13.5000 68.3000 1 8 157
1979066S13068 1979 15 SI MM GELIE 1979-03-07 09:00:00 TS -13.8515 68.4517 main 1341 1329 P________PP___ SH181979 -13.8475 68.4574 -1 -13.8475 68.4574 TC 25 -13.8595 68.4402 1 8 158
1979066S13068 1979 15 SI MM GELIE 1979-03-07 12:00:00 TS -14.2050 68.5915 main 1332 1321 O________OP___ jtwc_sh SH181979 -14.2000 68.6000 -1 -14.2000 68.6000 TC 25 -14.2151 68.5746 1 8 161
1979066S13068 1979 15 SI MM GELIE 1979-03-07 15:00:00 TS -14.5594 68.7089 main 1319 1312 P________PP___ SH181979 -14.5575 68.7150 -1 -14.5575 68.7150 TC 25 -14.5632 68.6966 1 7 164
1979066S13068 1979 15 SI MM GELIE 1979-03-07 18:00:00 TS -14.9000 68.8000 main 1312 1301 O________OO___ jtwc_sh SH181979 -14.9000 68.8000 -1 -14.9000 68.8000 TC 25 -14.9000 68.8000 1 7 167
1979066S13068 1979 15 SI MM GELIE 1979-03-07 21:00:00 TS -15.2170 68.8650 main 1306 1291 P________PP___ SH181979 -15.2150 68.8576 -1 -15.2150 68.8576 TC 25 -15.2209 68.8798 1 6 170
1979066S13068 1979 15 SI MM GELIE 1979-03-08 00:00:00 TS -15.5058 68.9125 main 1291 1281 O________OP___ jtwc_sh SH181979 -15.5000 68.9000 -1 -15.5000 68.9000 TC 25 -15.5174 68.9376 1 6 170
1979066S13068 1979 15 SI MM GELIE 1979-03-08 03:00:00 TS -15.7751 68.9639 main 1286 1277 P________PP___ SH181979 -15.7725 68.9575 -1 -15.7725 68.9575 TC 25 -15.7803 68.9766 1 5 170
1979066S13068 1979 15 SI MM GELIE 1979-03-08 06:00:00 TS -16.0000 69.0000 20 reunion main 1277 1268 O________OO___ jtwc_sh SH181979 -16.0000 69.0000 -1 -16.0000 69.0000 TC 25 -16.0000 69.0000 1 4 174
1979066S13068 1979 15 SI MM GELIE 1979-03-08 09:00:00 TS -16.1683 69.0098 main 1268 1263 P________PP___ SH181979 -16.1725 69.0075 -1 -16.1725 69.0075 TC 25 -16.1600 69.0145 1 3 179
1979066S13068 1979 15 SI MM GELIE 1979-03-08 12:00:00 TS -16.2933 69.0050 reunion main 1263 1259 O________OP___ jtwc_sh SH181979 -16.3000 69.0000 -1 -16.3000 69.0000 TC 25 -16.2800 69.0151 1 2 184
1979066S13068 1979 15 SI MM GELIE 1979-03-08 15:00:00 TS -16.3950 69.0027 main 1259 1255 P________PP___ SH181979 -16.4000 69.0000 -1 -16.4000 69.0000 TC 25 -16.3850 69.0082 1 2 0
1979066S13068 1979 15 SI MM GELIE 1979-03-08 18:00:00 TS -16.5000 69.0000 reunion main 1255 1251 O________OO___ jtwc_sh SH181979 -16.5000 69.0000 -1 -16.5000 69.0000 TC 25 -16.5000 69.0000 1 2 177
1979066S13068 1979 15 SI MM GELIE 1979-03-08 21:00:00 TS -16.6354 69.0067 main 1251 1243 P________PP___ SH181979 -16.6350 69.0000 -1 -16.6350 69.0000 TC 25 -16.6362 69.0201 1 3 0
1979066S13068 1979 15 SI MM GELIE 1979-03-09 00:00:00 TS -16.7967 69.0124 reunion main 1243 1236 O________OP___ jtwc_sh SH181979 -16.8000 69.0000 -1 -16.8000 69.0000 TC 25 -16.7900 69.0371 1 3 0
1979066S13068 1979 15 SI MM GELIE 1979-03-09 03:00:00 TS -16.9762 69.0218 main 1236 1228 P________PP___ SH181979 -16.9775 69.0149 -1 -16.9775 69.0149 TC 25 -16.9737 69.0356 1 4 182
1979066S13068 1979 15 SI MM GELIE 1979-03-09 06:00:00 TS -17.2000 69.0000 28 997 reunion main 1228 1208 O________OO___ jtwc_sh SH181979 -17.2000 69.0000 -1 -17.2000 69.0000 TC 25 -17.2000 69.0000 1 5 191
1979066S13068 1979 15 SI MM GELIE 1979-03-09 09:00:00 TS -17.4790 68.9160 main 1208 1189 P________PP___ SH181979 -17.4775 68.9225 -1 -17.4775 68.9225 TC 25 -17.4820 68.9031 1 6 198
1979066S13068 1979 15 SI MM GELIE 1979-03-09 12:00:00 TS -17.8017 68.7910 reunion main 1189 1160 O________OP___ jtwc_sh SH181979 -17.8000 68.8000 -1 -17.8000 68.8000 TC 25 -17.8051 68.7729 1 7 202
1979066S13068 1979 15 SI MM GELIE 1979-03-09 15:00:00 TS -18.1503 68.6388 main 1157 1139 P________PP___ SH181979 -18.1500 68.6426 -1 -18.1500 68.6426 TC 25 -18.1507 68.6312 1 8 202
1979066S13068 1979 15 SI MM GELIE 1979-03-09 18:00:00 TS -18.5000 68.5000 reunion main 1139 1123 O________OO___ jtwc_sh SH181979 -18.5000 68.5000 -1 -18.5000 68.5000 TC 25 -18.5000 68.5000 1 7 196
1979066S13068 1979 15 SI MM GELIE 1979-03-09 21:00:00 TS -18.7960 68.4449 main 1123 1117 P________PP___ SH181979 -18.8000 68.4423 -1 -18.8000 68.4423 TC 25 -18.7882 68.4501 1 6 188
1979066S13068 1979 15 SI MM GELIE 1979-03-10 00:00:00 TS -19.0940 68.4027 reunion main 1117 1102 O________OP___ jtwc_sh SH181979 -19.1000 68.4000 -1 -19.1000 68.4000 TC 25 -19.0821 68.4081 1 6 190
1979066S13068 1979 15 SI MM GELIE 1979-03-10 03:00:00 TS -19.4166 68.3372 main 1102 1087 P________PP___ SH181979 -19.4199 68.3372 -1 -19.4199 68.3372 TC 25 -19.4100 68.3372 1 7 195
1979066S13068 1979 15 SI MM GELIE 1979-03-10 06:00:00 TS -19.8000 68.2000 28 997 reunion main 1087 1063 O________OO___ jtwc_sh SH181979 -19.8000 68.2000 -1 -19.8000 68.2000 TC 25 -19.8000 68.2000 1 9 203
1979066S13068 1979 15 SI MM GELIE 1979-03-10 09:00:00 TS -20.2797 67.9437 main 1053 1011 P________PP___ SH181979 -20.2625 67.9375 -1 -20.2625 67.9375 TC 25 -20.3139 67.9560 1 13 211
1979066S13068 1979 15 SI MM GELIE 1979-03-10 12:00:00 TS -20.8815 67.4975 reunion main 1011 973 O____O___OP_O_ jtwc_sh SH181979 -20.8000 67.6000 -1 -21.2000 66.8000 99 9.90000 -20.8000 67.6000 TC 25 -20.8852 67.6414 1 -21.2000 66.8000 TC 45 14 213
1979066S13068 1979 15 SI MM GELIE 1979-03-10 15:00:00 TS -21.4503 67.1153 main 975 948 P____P___PP_P_ SH181979 -21.4150 67.2576 -1 -21.5150 66.6526 99 -21.4150 67.2576 TC 25 -21.4639 67.2809 1 -21.5150 66.6526 TC 42 13 213
1979066S13068 1979 15 SI MM GELIE 1979-03-10 18:00:00 TS -21.9333 66.7667 reunion main 950 925 O____O___OO_O_ jtwc_sh SH181979 -22.0000 66.9000 -1 -21.8000 66.5000 99 9.90000 -22.0000 66.9000 TC 25 -22.0000 66.9000 1 -21.8000 66.5000 TC 40 10 216
1979066S13068 1979 15 SI MM GELIE 1979-03-10 21:00:00 TS -22.2835 66.4628 main 928 903 P____P___PP_P_ SH181979 -22.4374 66.5571 -1 -22.0425 66.3424 99 -22.4374 66.5571 TC 25 -22.4580 66.5151 1 -22.0425 66.3424 TC 37 9 218
1979066S13068 1979 15 SI MM GELIE 1979-03-11 00:00:00 TS -22.6126 66.1841 reunion main 906 886 O____O___OP_O_ jtwc_sh SH181979 -22.8000 66.2000 -1 -22.3000 66.2000 99 9.90000 -22.8000 66.2000 TC 25 -22.8628 66.1203 1 -22.3000 66.2000 TC 35 8 217
1979066S13068 1979 15 SI MM GELIE 1979-03-11 03:00:00 TS -22.9622 65.9169 main 889 877 P____P___PP_P_ SH181979 -23.1801 65.7851 -1 -22.6198 66.1370 99 -23.1801 65.7851 TC 25 -23.2112 65.7402 1 -22.6198 66.1370 TC 30 9 216
1979066S13068 1979 15 SI MM GELIE 1979-03-11 06:00:00 TS -23.3000 65.6400 20 1003 reunion main 871 861 O____O___OO_O_ jtwc_sh SH181979 -23.5000 65.4000 -1 -23.0000 66.0000 2 20 1003 1.50000 1.50000 -23.5000 65.4000 TC 25 -23.5000 65.4000 1 -23.0000 66.0000 TC 25 1003 8 218
1979066S13068 1979 15 SI MM GELIE 1979-03-11 09:00:00 TS -23.6259 65.3552 main 865 846 P____P___PP_P_ SH181979 -23.7299 65.1197 -1 -23.4575 65.6603 2 -23.7299 65.1197 TC 25 -23.7549 65.2159 1 -23.4575 65.6603 TC 30 8 221
1979066S13068 1979 15 SI MM GELIE 1979-03-11 12:00:00 TS -23.9104 65.0522 reunion main 850 833 O____O___OP_O_ jtwc_sh SH181979 -23.9000 64.9000 -1 -23.9000 65.2000 99 9.90000 -23.9000 64.9000 TC 25 -23.9519 65.0609 1 -23.9000 65.2000 TC 35 8 225
1979066S13068 1979 15 SI MM GELIE 1979-03-11 15:00:00 TS -24.1522 64.7721 main 838 808 P____P___PP_P_ SH181979 -24.0792 64.7824 -1 -24.2524 64.7225 99 -24.0792 64.7824 TC 25 -24.0980 64.8507 1 -24.2524 64.7225 TC 35 7 236
1979066S13068 1979 15 SI MM GELIE 1979-03-11 18:00:00 TS -24.3200 64.3800 reunion main 808 763 O____O___OO_O_ jtwc_sh SH181979 -24.2000 64.5000 -1 -24.5000 64.2000 99 9.90000 -24.2000 64.5000 TC 25 -24.2000 64.5000 1 -24.5000 64.2000 TC 35 10 256
1979066S13068 1979 15 SI MM GELIE 1979-03-11 21:00:00 TS -24.3934 63.7308 main 754 697 P____P___PP_P_ SH181979 -24.2158 63.7746 -1 -24.6599 63.6575 99 -24.2158 63.7746 TC 25 -24.2156 63.7899 1 -24.6599 63.6575 TC 32 13 266
1979066S13068 1979 15 SI MM GELIE 1979-03-12 00:00:00 TS -24.3992 62.9906 reunion main 697 642 O____O___OP_O_ jtwc_sh SH181979 -24.2000 62.9000 -1 -24.7000 63.1000 99 9.90000 -24.2000 62.9000 TC 25 -24.1962 62.9530 1 -24.7000 63.1000 TC 30 13 271
1979066S13068 1979 15 SI MM GELIE 1979-03-12 03:00:00 TS -24.3747 62.2769 main 642 599 P____P___PP_P_ SH181979 -24.1978 62.0949 -1 -24.6375 62.5272 99 -24.1978 62.0949 TC 25 -24.2030 62.1400 1 -24.6375 62.5272 TC 27 12 272
1979066S13068 1979 15 SI MM GELIE 1979-03-12 06:00:00 TS -24.3667 61.6667 reunion main 599 578 O____O___OO_O_ jtwc_sh SH181979 -24.3000 61.5000 -1 -24.5000 62.0000 6 9.90000 -24.3000 61.5000 TC 25 -24.3000 61.5000 1 -24.5000 62.0000 TC 25 8 260
1979066S13068 1979 15 SI MM GELIE 1979-03-12 09:00:00 TS -24.5281 61.3657 main 586 586 P____P___PP_P_ SH181979 -24.5969 61.3023 -1 -24.3500 61.5700 6 -24.5969 61.3023 TC 25 -24.5841 61.2506 1 -24.3500 61.5700 TC 25 6 217
1979066S13068 1979 15 SI MM GELIE 1979-03-12 12:00:00 TS -24.8757 61.2524 reunion main 614 608 O____O___OP_O_ jtwc_sh SH181979 -25.0000 61.3000 -1 -24.2000 61.2000 99 9.90000 -25.0000 61.3000 TC 25 -24.9648 61.1835 1 -24.2000 61.2000 TC 25 9 187
1979066S13068 1979 15 SI MM GELIE 1979-03-12 15:00:00 TS -25.4010 61.2431 main 654 654 P________PP___ SH181979 -25.4074 61.2647 -1 99 -25.4074 61.2647 TC 25 -25.3881 61.1999 1 TC 9 183
1979066S13068 1979 15 SI MM GELIE 1979-03-12 18:00:00 TS -25.8000 61.2000 reunion main 691 691 O________OO___ jtwc_sh SH181979 -25.8000 61.2000 -1 -25.8000 61.2000 TC 25 -25.8000 61.2000 1 8 193
1979066S13068 1979 15 SI MM GELIE 1979-03-12 21:00:00 TS -26.1293 61.0498 main 710 710 P________PP___ SH181979 -26.1150 61.0225 -1 -26.1150 61.0225 TC 25 -26.1579 61.1043 1 7 207
1979066S13068 1979 15 SI MM GELIE 1979-03-13 00:00:00 TS -26.4222 60.8399 reunion main 731 731 O________OP___ jtwc_sh SH181979 -26.4000 60.8000 -1 -26.4000 60.8000 TC 25 -26.4665 60.9197 1 7 214
1979066S13068 1979 15 SI MM GELIE 1979-03-13 03:00:00 TS -26.7106 60.6202 main 753 753 P________PP___ SH181979 -26.6950 60.5926 -1 -26.6950 60.5926 TC 25 -26.7417 60.6752 1 7 214
1979066S13068 1979 15 SI MM GELIE 1979-03-13 06:00:00 TS -27.0000 60.4000 reunion main 776 O________OO___ jtwc_sh SH181979 -27.0000 60.4000 -1 -27.0000 60.4000 TC 25 -27.0000 60.4000 1 7 215

IBTrACS Databaseについて

本データベースは、米国NOAAが公開する1842年以降の世界の熱帯低気圧のベストトラックデータアーカイブInternational Best Track Archive for Climate Stewardship (IBTrACS)を、ウェブで閲覧しやすい形式に変換したものです。

最終更新日:2021-11-26